sensor_id;sensor_type;location;lat;lon;timestamp;P1;durP1;ratioP1;P2;durP2;ratioP2
70592;SDS011;58294;42.988;20.338;2023-06-14T00:00:52;13.82;;;12.30;;
70592;SDS011;58294;42.988;20.338;2023-06-14T00:03:18;13.57;;;12.18;;
70592;SDS011;58294;42.988;20.338;2023-06-14T00:05:47;15.23;;;13.68;;
70592;SDS011;58294;42.988;20.338;2023-06-14T00:08:13;17.52;;;14.48;;
70592;SDS011;58294;42.988;20.338;2023-06-14T00:10:40;15.18;;;13.35;;
70592;SDS011;58294;42.988;20.338;2023-06-14T00:13:10;15.40;;;13.48;;
70592;SDS011;58294;42.988;20.338;2023-06-14T00:15:36;15.88;;;13.55;;
70592;SDS011;58294;42.988;20.338;2023-06-14T00:18:02;15.05;;;13.65;;
70592;SDS011;58294;42.988;20.338;2023-06-14T00:20:28;14.40;;;12.90;;
70592;SDS011;58294;42.988;20.338;2023-06-14T00:22:57;16.10;;;13.50;;
70592;SDS011;58294;42.988;20.338;2023-06-14T00:25:24;14.95;;;13.45;;
70592;SDS011;58294;42.988;20.338;2023-06-14T00:27:53;17.85;;;14.73;;
70592;SDS011;58294;42.988;20.338;2023-06-14T00:30:19;15.02;;;13.40;;
70592;SDS011;58294;42.988;20.338;2023-06-14T00:32:45;15.88;;;13.25;;
70592;SDS011;58294;42.988;20.338;2023-06-14T00:35:12;18.23;;;14.10;;
70592;SDS011;58294;42.988;20.338;2023-06-14T00:37:38;15.90;;;13.75;;
70592;SDS011;58294;42.988;20.338;2023-06-14T00:40:05;15.93;;;13.50;;
70592;SDS011;58294;42.988;20.338;2023-06-14T00:42:31;16.20;;;14.32;;
70592;SDS011;58294;42.988;20.338;2023-06-14T00:44:58;18.40;;;13.43;;
70592;SDS011;58294;42.988;20.338;2023-06-14T00:47:24;19.85;;;12.65;;
70592;SDS011;58294;42.988;20.338;2023-06-14T00:49:52;16.33;;;14.55;;
70592;SDS011;58294;42.988;20.338;2023-06-14T00:52:18;14.18;;;12.75;;
70592;SDS011;58294;42.988;20.338;2023-06-14T00:54:45;16.13;;;14.43;;
70592;SDS011;58294;42.988;20.338;2023-06-14T00:57:12;14.98;;;13.50;;
70592;SDS011;58294;42.988;20.338;2023-06-14T00:59:42;14.65;;;13.10;;
70592;SDS011;58294;42.988;20.338;2023-06-14T01:02:07;15.32;;;13.65;;
70592;SDS011;58294;42.988;20.338;2023-06-14T01:04:33;15.70;;;13.43;;
70592;SDS011;58294;42.988;20.338;2023-06-14T01:07:02;14.23;;;12.73;;
70592;SDS011;58294;42.988;20.338;2023-06-14T01:12:36;17.13;;;13.00;;
70592;SDS011;58294;42.988;20.338;2023-06-14T01:15:13;17.50;;;14.02;;
70592;SDS011;58294;42.988;20.338;2023-06-14T01:17:40;14.27;;;12.55;;
70592;SDS011;58294;42.988;20.338;2023-06-14T01:20:10;13.57;;;12.05;;
70592;SDS011;58294;42.988;20.338;2023-06-14T01:22:52;13.50;;;10.85;;
70592;SDS011;58294;42.988;20.338;2023-06-14T01:25:22;13.48;;;11.93;;
70592;SDS011;58294;42.988;20.338;2023-06-14T01:27:49;14.25;;;12.73;;
70592;SDS011;58294;42.988;20.338;2023-06-14T01:30:16;15.23;;;12.20;;
70592;SDS011;58294;42.988;20.338;2023-06-14T01:32:43;13.07;;;11.77;;
70592;SDS011;58294;42.988;20.338;2023-06-14T01:35:10;13.82;;;12.40;;
70592;SDS011;58294;42.988;20.338;2023-06-14T01:37:36;13.98;;;12.45;;
70592;SDS011;58294;42.988;20.338;2023-06-14T01:40:05;14.20;;;12.77;;
70592;SDS011;58294;42.988;20.338;2023-06-14T01:42:36;14.82;;;12.50;;
70592;SDS011;58294;42.988;20.338;2023-06-14T01:45:03;15.70;;;12.48;;
70592;SDS011;58294;42.988;20.338;2023-06-14T01:47:30;14.35;;;11.57;;
70592;SDS011;58294;42.988;20.338;2023-06-14T01:49:57;13.35;;;11.82;;
70592;SDS011;58294;42.988;20.338;2023-06-14T01:52:23;15.75;;;12.70;;
70592;SDS011;58294;42.988;20.338;2023-06-14T01:54:49;15.80;;;11.95;;
70592;SDS011;58294;42.988;20.338;2023-06-14T01:57:16;13.05;;;11.02;;
70592;SDS011;58294;42.988;20.338;2023-06-14T01:59:42;12.07;;;10.98;;
70592;SDS011;58294;42.988;20.338;2023-06-14T02:02:13;15.50;;;12.35;;
70592;SDS011;58294;42.988;20.338;2023-06-14T02:04:39;13.68;;;11.35;;
70592;SDS011;58294;42.988;20.338;2023-06-14T02:07:05;14.80;;;12.35;;
70592;SDS011;58294;42.988;20.338;2023-06-14T02:09:31;12.25;;;10.82;;
70592;SDS011;58294;42.988;20.338;2023-06-14T02:11:57;14.20;;;10.63;;
70592;SDS011;58294;42.988;20.338;2023-06-14T02:14:24;11.18;;;10.18;;
70592;SDS011;58294;42.988;20.338;2023-06-14T02:16:51;12.20;;;10.93;;
70592;SDS011;58294;42.988;20.338;2023-06-14T02:19:18;11.85;;;10.18;;
70592;SDS011;58294;42.988;20.338;2023-06-14T02:21:44;10.75;;;9.68;;
70592;SDS011;58294;42.988;20.338;2023-06-14T02:24:10;11.90;;;10.30;;
70592;SDS011;58294;42.988;20.338;2023-06-14T02:26:37;11.25;;;10.05;;
70592;SDS011;58294;42.988;20.338;2023-06-14T02:29:04;13.48;;;10.23;;
70592;SDS011;58294;42.988;20.338;2023-06-14T02:31:40;10.77;;;9.73;;
70592;SDS011;58294;42.988;20.338;2023-06-14T02:34:06;12.68;;;11.45;;
70592;SDS011;58294;42.988;20.338;2023-06-14T02:36:35;13.10;;;10.52;;
70592;SDS011;58294;42.988;20.338;2023-06-14T02:39:09;15.23;;;11.00;;
70592;SDS011;58294;42.988;20.338;2023-06-14T02:41:35;12.75;;;10.75;;
70592;SDS011;58294;42.988;20.338;2023-06-14T02:44:01;13.32;;;11.63;;
70592;SDS011;58294;42.988;20.338;2023-06-14T02:46:27;17.38;;;12.18;;
70592;SDS011;58294;42.988;20.338;2023-06-14T02:48:54;14.23;;;12.40;;
70592;SDS011;58294;42.988;20.338;2023-06-14T02:51:20;13.77;;;12.23;;
70592;SDS011;58294;42.988;20.338;2023-06-14T02:53:46;14.63;;;11.45;;
70592;SDS011;58294;42.988;20.338;2023-06-14T02:56:12;18.75;;;12.00;;
70592;SDS011;58294;42.988;20.338;2023-06-14T02:58:38;13.98;;;12.15;;
70592;SDS011;58294;42.988;20.338;2023-06-14T03:01:05;13.65;;;12.13;;
70592;SDS011;58294;42.988;20.338;2023-06-14T03:03:32;17.85;;;13.18;;
70592;SDS011;58294;42.988;20.338;2023-06-14T03:05:59;17.23;;;12.10;;
70592;SDS011;58294;42.988;20.338;2023-06-14T03:08:29;13.85;;;11.55;;
70592;SDS011;58294;42.988;20.338;2023-06-14T03:10:56;16.95;;;13.20;;
70592;SDS011;58294;42.988;20.338;2023-06-14T03:13:23;15.48;;;13.00;;
70592;SDS011;58294;42.988;20.338;2023-06-14T03:15:49;17.15;;;11.63;;
70592;SDS011;58294;42.988;20.338;2023-06-14T03:18:16;14.80;;;12.35;;
70592;SDS011;58294;42.988;20.338;2023-06-14T03:20:42;15.75;;;12.70;;
70592;SDS011;58294;42.988;20.338;2023-06-14T03:23:10;14.10;;;12.60;;
70592;SDS011;58294;42.988;20.338;2023-06-14T03:25:36;19.38;;;13.20;;
70592;SDS011;58294;42.988;20.338;2023-06-14T03:28:06;16.25;;;13.68;;
70592;SDS011;58294;42.988;20.338;2023-06-14T03:30:32;23.42;;;15.27;;
70592;SDS011;58294;42.988;20.338;2023-06-14T03:32:58;18.20;;;14.07;;
70592;SDS011;58294;42.988;20.338;2023-06-14T03:35:28;18.55;;;13.18;;
70592;SDS011;58294;42.988;20.338;2023-06-14T03:37:54;14.48;;;12.98;;
70592;SDS011;58294;42.988;20.338;2023-06-14T03:40:20;15.55;;;13.25;;
70592;SDS011;58294;42.988;20.338;2023-06-14T03:42:47;17.27;;;14.10;;
70592;SDS011;58294;42.988;20.338;2023-06-14T03:45:13;15.68;;;13.32;;
70592;SDS011;58294;42.988;20.338;2023-06-14T03:47:39;15.20;;;13.27;;
70592;SDS011;58294;42.988;20.338;2023-06-14T03:50:05;15.05;;;13.48;;
70592;SDS011;58294;42.988;20.338;2023-06-14T03:52:32;18.40;;;14.70;;
70592;SDS011;58294;42.988;20.338;2023-06-14T03:54:58;16.10;;;13.40;;
70592;SDS011;58294;42.988;20.338;2023-06-14T03:57:29;17.42;;;13.35;;
70592;SDS011;58294;42.988;20.338;2023-06-14T03:59:55;14.95;;;13.45;;
70592;SDS011;58294;42.988;20.338;2023-06-14T04:02:21;13.00;;;11.75;;
70592;SDS011;58294;42.988;20.338;2023-06-14T04:04:48;14.82;;;13.23;;
70592;SDS011;58294;42.988;20.338;2023-06-14T04:07:15;15.43;;;13.63;;
70592;SDS011;58294;42.988;20.338;2023-06-14T04:09:44;15.38;;;13.32;;
70592;SDS011;58294;42.988;20.338;2023-06-14T04:12:10;14.32;;;12.70;;
70592;SDS011;58294;42.988;20.338;2023-06-14T04:14:37;15.45;;;13.13;;
70592;SDS011;58294;42.988;20.338;2023-06-14T04:17:03;13.10;;;11.38;;
70592;SDS011;58294;42.988;20.338;2023-06-14T04:19:29;14.30;;;12.68;;
70592;SDS011;58294;42.988;20.338;2023-06-14T04:21:55;14.30;;;11.65;;
70592;SDS011;58294;42.988;20.338;2023-06-14T04:24:22;13.73;;;12.15;;
70592;SDS011;58294;42.988;20.338;2023-06-14T04:26:48;14.52;;;13.13;;
70592;SDS011;58294;42.988;20.338;2023-06-14T04:29:16;15.82;;;13.25;;
70592;SDS011;58294;42.988;20.338;2023-06-14T04:31:44;14.85;;;13.30;;
70592;SDS011;58294;42.988;20.338;2023-06-14T04:34:11;17.05;;;13.95;;
70592;SDS011;58294;42.988;20.338;2023-06-14T04:36:41;14.85;;;13.30;;
70592;SDS011;58294;42.988;20.338;2023-06-14T04:39:14;14.88;;;13.10;;
70592;SDS011;58294;42.988;20.338;2023-06-14T04:41:40;18.63;;;13.95;;
70592;SDS011;58294;42.988;20.338;2023-06-14T04:44:06;16.05;;;12.32;;
70592;SDS011;58294;42.988;20.338;2023-06-14T04:46:33;15.57;;;13.52;;
70592;SDS011;58294;42.988;20.338;2023-06-14T04:49:11;15.48;;;12.98;;
70592;SDS011;58294;42.988;20.338;2023-06-14T04:51:39;15.48;;;13.40;;
70592;SDS011;58294;42.988;20.338;2023-06-14T04:54:06;13.95;;;12.27;;
70592;SDS011;58294;42.988;20.338;2023-06-14T04:56:35;18.92;;;13.90;;
70592;SDS011;58294;42.988;20.338;2023-06-14T04:59:04;14.00;;;12.23;;
70592;SDS011;58294;42.988;20.338;2023-06-14T05:01:31;15.43;;;12.65;;
70592;SDS011;58294;42.988;20.338;2023-06-14T05:03:58;16.88;;;13.05;;
70592;SDS011;58294;42.988;20.338;2023-06-14T05:06:24;18.23;;;12.35;;
70592;SDS011;58294;42.988;20.338;2023-06-14T05:08:51;13.80;;;12.13;;
70592;SDS011;58294;42.988;20.338;2023-06-14T05:11:17;13.68;;;12.10;;
70592;SDS011;58294;42.988;20.338;2023-06-14T05:13:43;15.00;;;13.43;;
70592;SDS011;58294;42.988;20.338;2023-06-14T05:16:10;15.25;;;12.02;;
70592;SDS011;58294;42.988;20.338;2023-06-14T05:18:37;17.55;;;13.90;;
70592;SDS011;58294;42.988;20.338;2023-06-14T05:21:05;15.80;;;13.38;;
70592;SDS011;58294;42.988;20.338;2023-06-14T05:23:31;15.10;;;12.57;;
70592;SDS011;58294;42.988;20.338;2023-06-14T05:25:57;16.13;;;13.00;;
70592;SDS011;58294;42.988;20.338;2023-06-14T05:28:24;16.05;;;13.30;;
70592;SDS011;58294;42.988;20.338;2023-06-14T05:30:50;18.02;;;14.30;;
70592;SDS011;58294;42.988;20.338;2023-06-14T05:33:17;15.63;;;13.50;;
70592;SDS011;58294;42.988;20.338;2023-06-14T05:35:43;26.95;;;14.77;;
70592;SDS011;58294;42.988;20.338;2023-06-14T05:38:09;18.52;;;13.98;;
70592;SDS011;58294;42.988;20.338;2023-06-14T05:40:35;14.93;;;13.07;;
70592;SDS011;58294;42.988;20.338;2023-06-14T05:43:01;15.55;;;12.82;;
70592;SDS011;58294;42.988;20.338;2023-06-14T05:45:27;14.40;;;12.88;;
70592;SDS011;58294;42.988;20.338;2023-06-14T05:47:53;14.65;;;12.07;;
70592;SDS011;58294;42.988;20.338;2023-06-14T05:50:20;15.98;;;12.95;;
70592;SDS011;58294;42.988;20.338;2023-06-14T05:52:46;14.27;;;12.20;;
70592;SDS011;58294;42.988;20.338;2023-06-14T05:55:12;22.35;;;15.05;;
70592;SDS011;58294;42.988;20.338;2023-06-14T05:57:38;14.85;;;12.45;;
70592;SDS011;58294;42.988;20.338;2023-06-14T06:00:06;24.10;;;14.82;;
70592;SDS011;58294;42.988;20.338;2023-06-14T06:02:51;17.40;;;13.10;;
70592;SDS011;58294;42.988;20.338;2023-06-14T06:05:17;15.48;;;12.60;;
70592;SDS011;58294;42.988;20.338;2023-06-14T06:07:43;14.27;;;12.13;;
70592;SDS011;58294;42.988;20.338;2023-06-14T06:10:10;15.73;;;12.05;;
70592;SDS011;58294;42.988;20.338;2023-06-14T06:12:36;17.98;;;14.05;;
70592;SDS011;58294;42.988;20.338;2023-06-14T06:15:03;15.55;;;12.25;;
70592;SDS011;58294;42.988;20.338;2023-06-14T06:17:29;16.30;;;13.48;;
70592;SDS011;58294;42.988;20.338;2023-06-14T06:19:55;14.93;;;12.93;;
70592;SDS011;58294;42.988;20.338;2023-06-14T06:22:21;15.45;;;13.02;;
70592;SDS011;58294;42.988;20.338;2023-06-14T06:24:47;18.58;;;13.70;;
70592;SDS011;58294;42.988;20.338;2023-06-14T06:27:13;18.80;;;13.73;;
70592;SDS011;58294;42.988;20.338;2023-06-14T06:29:41;17.48;;;13.57;;
70592;SDS011;58294;42.988;20.338;2023-06-14T06:32:09;14.52;;;12.73;;
70592;SDS011;58294;42.988;20.338;2023-06-14T06:34:35;26.98;;;14.82;;
70592;SDS011;58294;42.988;20.338;2023-06-14T06:37:02;23.13;;;19.88;;
70592;SDS011;58294;42.988;20.338;2023-06-14T06:39:28;32.70;;;25.15;;
70592;SDS011;58294;42.988;20.338;2023-06-14T06:41:54;22.63;;;18.02;;
70592;SDS011;58294;42.988;20.338;2023-06-14T06:44:20;63.38;;;47.17;;
70592;SDS011;58294;42.988;20.338;2023-06-14T06:46:46;48.90;;;37.40;;
70592;SDS011;58294;42.988;20.338;2023-06-14T06:49:13;27.38;;;23.73;;
70592;SDS011;58294;42.988;20.338;2023-06-14T06:51:42;21.35;;;16.52;;
70592;SDS011;58294;42.988;20.338;2023-06-14T06:54:09;23.50;;;19.40;;
70592;SDS011;58294;42.988;20.338;2023-06-14T06:56:35;16.77;;;12.77;;
70592;SDS011;58294;42.988;20.338;2023-06-14T06:59:02;17.25;;;12.60;;
70592;SDS011;58294;42.988;20.338;2023-06-14T07:01:28;14.52;;;12.88;;
70592;SDS011;58294;42.988;20.338;2023-06-14T07:03:54;16.88;;;12.85;;
70592;SDS011;58294;42.988;20.338;2023-06-14T07:06:21;17.58;;;14.05;;
70592;SDS011;58294;42.988;20.338;2023-06-14T07:08:47;15.90;;;12.13;;
70592;SDS011;58294;42.988;20.338;2023-06-14T07:11:13;16.50;;;14.13;;
70592;SDS011;58294;42.988;20.338;2023-06-14T07:13:40;15.45;;;12.35;;
70592;SDS011;58294;42.988;20.338;2023-06-14T07:16:06;16.95;;;12.25;;
70592;SDS011;58294;42.988;20.338;2023-06-14T07:18:32;14.13;;;11.75;;
70592;SDS011;58294;42.988;20.338;2023-06-14T07:20:58;18.85;;;13.48;;
70592;SDS011;58294;42.988;20.338;2023-06-14T07:23:25;12.48;;;11.02;;
70592;SDS011;58294;42.988;20.338;2023-06-14T07:25:50;14.98;;;11.55;;
70592;SDS011;58294;42.988;20.338;2023-06-14T07:28:16;15.32;;;10.15;;
70592;SDS011;58294;42.988;20.338;2023-06-14T07:30:43;15.20;;;13.15;;
70592;SDS011;58294;42.988;20.338;2023-06-14T07:33:09;13.50;;;11.48;;
70592;SDS011;58294;42.988;20.338;2023-06-14T07:35:37;13.85;;;10.88;;
70592;SDS011;58294;42.988;20.338;2023-06-14T07:38:03;13.57;;;11.00;;
70592;SDS011;58294;42.988;20.338;2023-06-14T07:40:29;12.65;;;10.70;;
70592;SDS011;58294;42.988;20.338;2023-06-14T07:42:55;11.07;;;9.93;;
70592;SDS011;58294;42.988;20.338;2023-06-14T07:45:21;13.20;;;11.02;;
70592;SDS011;58294;42.988;20.338;2023-06-14T07:47:47;12.88;;;11.27;;
70592;SDS011;58294;42.988;20.338;2023-06-14T07:50:13;16.50;;;13.93;;
70592;SDS011;58294;42.988;20.338;2023-06-14T07:52:40;12.35;;;10.90;;
70592;SDS011;58294;42.988;20.338;2023-06-14T07:55:05;11.00;;;9.85;;
70592;SDS011;58294;42.988;20.338;2023-06-14T07:57:32;14.23;;;11.23;;
70592;SDS011;58294;42.988;20.338;2023-06-14T07:59:57;11.18;;;9.98;;
70592;SDS011;58294;42.988;20.338;2023-06-14T08:02:23;13.38;;;11.45;;
70592;SDS011;58294;42.988;20.338;2023-06-14T08:04:49;13.82;;;11.07;;
70592;SDS011;58294;42.988;20.338;2023-06-14T08:07:15;12.13;;;10.82;;
70592;SDS011;58294;42.988;20.338;2023-06-14T08:09:41;12.13;;;10.57;;
70592;SDS011;58294;42.988;20.338;2023-06-14T08:12:07;13.10;;;11.43;;
70592;SDS011;58294;42.988;20.338;2023-06-14T08:14:35;12.45;;;11.15;;
70592;SDS011;58294;42.988;20.338;2023-06-14T08:17:01;17.48;;;15.65;;
70592;SDS011;58294;42.988;20.338;2023-06-14T08:19:27;16.13;;;14.63;;
70592;SDS011;58294;42.988;20.338;2023-06-14T08:21:53;21.48;;;19.55;;
70592;SDS011;58294;42.988;20.338;2023-06-14T08:24:23;16.85;;;15.15;;
70592;SDS011;58294;42.988;20.338;2023-06-14T08:26:52;13.15;;;11.18;;
70592;SDS011;58294;42.988;20.338;2023-06-14T08:29:19;12.40;;;10.50;;
70592;SDS011;58294;42.988;20.338;2023-06-14T08:31:45;15.07;;;11.88;;
70592;SDS011;58294;42.988;20.338;2023-06-14T08:34:11;12.65;;;10.85;;
70592;SDS011;58294;42.988;20.338;2023-06-14T08:36:37;12.30;;;10.85;;
70592;SDS011;58294;42.988;20.338;2023-06-14T08:39:02;13.27;;;11.88;;
70592;SDS011;58294;42.988;20.338;2023-06-14T08:41:28;15.00;;;11.50;;
70592;SDS011;58294;42.988;20.338;2023-06-14T08:43:55;13.48;;;10.68;;
70592;SDS011;58294;42.988;20.338;2023-06-14T08:46:21;12.07;;;10.82;;
70592;SDS011;58294;42.988;20.338;2023-06-14T08:48:50;12.43;;;10.73;;
70592;SDS011;58294;42.988;20.338;2023-06-14T08:51:20;15.38;;;11.63;;
70592;SDS011;58294;42.988;20.338;2023-06-14T08:53:57;15.60;;;12.15;;
70592;SDS011;58294;42.988;20.338;2023-06-14T08:56:26;13.05;;;11.15;;
70592;SDS011;58294;42.988;20.338;2023-06-14T08:58:52;13.32;;;11.65;;
70592;SDS011;58294;42.988;20.338;2023-06-14T09:01:19;15.63;;;12.50;;
70592;SDS011;58294;42.988;20.338;2023-06-14T09:03:46;16.40;;;11.93;;
70592;SDS011;58294;42.988;20.338;2023-06-14T09:06:14;15.25;;;11.50;;
70592;SDS011;58294;42.988;20.338;2023-06-14T09:08:44;18.23;;;13.88;;
70592;SDS011;58294;42.988;20.338;2023-06-14T09:11:12;14.57;;;11.48;;
70592;SDS011;58294;42.988;20.338;2023-06-14T09:13:38;12.13;;;10.65;;
70592;SDS011;58294;42.988;20.338;2023-06-14T09:16:05;14.57;;;11.05;;
70592;SDS011;58294;42.988;20.338;2023-06-14T09:21:10;12.30;;;10.55;;
70592;SDS011;58294;42.988;20.338;2023-06-14T09:23:38;11.65;;;10.45;;
70592;SDS011;58294;42.988;20.338;2023-06-14T09:26:09;12.07;;;10.27;;
70592;SDS011;58294;42.988;20.338;2023-06-14T09:31:12;11.98;;;10.75;;
70592;SDS011;58294;42.988;20.338;2023-06-14T09:33:41;14.23;;;10.32;;
70592;SDS011;58294;42.988;20.338;2023-06-14T09:36:14;13.40;;;10.35;;
70592;SDS011;58294;42.988;20.338;2023-06-14T09:38:53;13.45;;;12.05;;
70592;SDS011;58294;42.988;20.338;2023-06-14T09:41:19;14.50;;;11.45;;
70592;SDS011;58294;42.988;20.338;2023-06-14T09:43:46;15.13;;;12.70;;
70592;SDS011;58294;42.988;20.338;2023-06-14T09:46:15;16.20;;;12.25;;
70592;SDS011;58294;42.988;20.338;2023-06-14T09:48:42;15.43;;;13.02;;
70592;SDS011;58294;42.988;20.338;2023-06-14T09:51:11;13.68;;;12.07;;
70592;SDS011;58294;42.988;20.338;2023-06-14T09:53:40;13.98;;;12.10;;
70592;SDS011;58294;42.988;20.338;2023-06-14T09:56:08;14.02;;;12.50;;
70592;SDS011;58294;42.988;20.338;2023-06-14T09:58:35;13.05;;;11.57;;
70592;SDS011;58294;42.988;20.338;2023-06-14T10:01:04;14.07;;;12.35;;
70592;SDS011;58294;42.988;20.338;2023-06-14T10:03:33;19.58;;;14.75;;
70592;SDS011;58294;42.988;20.338;2023-06-14T10:06:02;14.88;;;12.52;;
70592;SDS011;58294;42.988;20.338;2023-06-14T10:08:33;13.40;;;11.70;;
70592;SDS011;58294;42.988;20.338;2023-06-14T10:11:02;16.02;;;13.13;;
70592;SDS011;58294;42.988;20.338;2023-06-14T10:13:28;11.52;;;10.20;;
70592;SDS011;58294;42.988;20.338;2023-06-14T10:21:28;11.32;;;9.20;;
70592;SDS011;58294;42.988;20.338;2023-06-14T10:24:06;10.90;;;9.40;;
70592;SDS011;58294;42.988;20.338;2023-06-14T10:26:39;11.57;;;8.48;;
70592;SDS011;58294;42.988;20.338;2023-06-14T10:29:16;12.73;;;8.27;;
70592;SDS011;58294;42.988;20.338;2023-06-14T10:31:43;9.18;;;8.30;;
70592;SDS011;58294;42.988;20.338;2023-06-14T10:34:10;10.93;;;9.75;;
70592;SDS011;58294;42.988;20.338;2023-06-14T10:36:36;13.32;;;11.05;;
70592;SDS011;58294;42.988;20.338;2023-06-14T10:39:08;10.52;;;9.25;;
70592;SDS011;58294;42.988;20.338;2023-06-14T10:41:42;14.23;;;9.15;;
70592;SDS011;58294;42.988;20.338;2023-06-14T10:46:54;9.15;;;7.72;;
70592;SDS011;58294;42.988;20.338;2023-06-14T10:49:37;8.32;;;7.40;;
70592;SDS011;58294;42.988;20.338;2023-06-14T10:52:13;11.73;;;8.05;;
70592;SDS011;58294;42.988;20.338;2023-06-14T10:57:22;16.08;;;8.73;;
70592;SDS011;58294;42.988;20.338;2023-06-14T10:59:49;8.82;;;7.10;;
70592;SDS011;58294;42.988;20.338;2023-06-14T11:07:17;10.63;;;8.10;;
70592;SDS011;58294;42.988;20.338;2023-06-14T11:15:14;8.85;;;7.45;;
70592;SDS011;58294;42.988;20.338;2023-06-14T11:17:49;9.70;;;7.07;;
70592;SDS011;58294;42.988;20.338;2023-06-14T11:20:16;10.05;;;7.35;;
70592;SDS011;58294;42.988;20.338;2023-06-14T11:22:42;8.13;;;7.20;;
70592;SDS011;58294;42.988;20.338;2023-06-14T11:25:09;8.18;;;6.60;;
70592;SDS011;58294;42.988;20.338;2023-06-14T11:27:35;8.95;;;8.05;;
70592;SDS011;58294;42.988;20.338;2023-06-14T11:30:02;9.02;;;7.35;;
70592;SDS011;58294;42.988;20.338;2023-06-14T11:32:28;10.55;;;7.53;;
70592;SDS011;58294;42.988;20.338;2023-06-14T11:34:56;8.55;;;7.72;;
70592;SDS011;58294;42.988;20.338;2023-06-14T11:37:24;8.70;;;7.07;;
70592;SDS011;58294;42.988;20.338;2023-06-14T11:42:24;9.75;;;6.70;;
70592;SDS011;58294;42.988;20.338;2023-06-14T11:44:53;12.68;;;8.73;;
70592;SDS011;58294;42.988;20.338;2023-06-14T11:47:20;10.57;;;8.90;;
70592;SDS011;58294;42.988;20.338;2023-06-14T11:49:46;11.68;;;9.27;;
70592;SDS011;58294;42.988;20.338;2023-06-14T11:52:13;9.68;;;8.60;;
70592;SDS011;58294;42.988;20.338;2023-06-14T11:54:39;11.32;;;9.02;;
70592;SDS011;58294;42.988;20.338;2023-06-14T11:57:07;15.48;;;10.60;;
70592;SDS011;58294;42.988;20.338;2023-06-14T11:59:43;12.13;;;10.32;;
70592;SDS011;58294;42.988;20.338;2023-06-14T12:02:09;9.93;;;8.73;;
70592;SDS011;58294;42.988;20.338;2023-06-14T12:04:48;11.57;;;10.07;;
70592;SDS011;58294;42.988;20.338;2023-06-14T12:07:14;14.93;;;10.65;;
70592;SDS011;58294;42.988;20.338;2023-06-14T12:09:42;10.13;;;8.60;;
70592;SDS011;58294;42.988;20.338;2023-06-14T12:12:34;13.15;;;10.10;;
70592;SDS011;58294;42.988;20.338;2023-06-14T12:15:02;10.60;;;9.27;;
70592;SDS011;58294;42.988;20.338;2023-06-14T12:17:31;9.45;;;8.02;;
70592;SDS011;58294;42.988;20.338;2023-06-14T12:19:58;9.57;;;8.35;;
70592;SDS011;58294;42.988;20.338;2023-06-14T12:22:23;9.02;;;8.18;;
70592;SDS011;58294;42.988;20.338;2023-06-14T12:24:50;9.15;;;8.15;;
70592;SDS011;58294;42.988;20.338;2023-06-14T12:27:18;11.32;;;9.50;;
70592;SDS011;58294;42.988;20.338;2023-06-14T12:29:58;16.40;;;11.93;;
70592;SDS011;58294;42.988;20.338;2023-06-14T12:32:27;10.52;;;9.18;;
70592;SDS011;58294;42.988;20.338;2023-06-14T12:34:54;20.55;;;15.13;;
70592;SDS011;58294;42.988;20.338;2023-06-14T12:37:20;21.55;;;17.33;;
70592;SDS011;58294;42.988;20.338;2023-06-14T12:39:46;10.98;;;9.07;;
70592;SDS011;58294;42.988;20.338;2023-06-14T12:42:12;9.07;;;8.18;;
70592;SDS011;58294;42.988;20.338;2023-06-14T12:44:39;9.73;;;8.73;;
70592;SDS011;58294;42.988;20.338;2023-06-14T12:47:06;14.15;;;9.82;;
70592;SDS011;58294;42.988;20.338;2023-06-14T12:49:33;12.98;;;9.45;;
70592;SDS011;58294;42.988;20.338;2023-06-14T12:51:58;37.20;;;25.05;;
70592;SDS011;58294;42.988;20.338;2023-06-14T12:54:24;11.10;;;8.82;;
70592;SDS011;58294;42.988;20.338;2023-06-14T12:56:53;11.50;;;8.48;;
70592;SDS011;58294;42.988;20.338;2023-06-14T12:59:20;14.52;;;11.35;;
70592;SDS011;58294;42.988;20.338;2023-06-14T13:01:45;13.35;;;10.27;;
70592;SDS011;58294;42.988;20.338;2023-06-14T13:04:14;11.40;;;8.65;;
70592;SDS011;58294;42.988;20.338;2023-06-14T13:06:40;7.80;;;6.95;;
70592;SDS011;58294;42.988;20.338;2023-06-14T13:09:06;9.43;;;7.70;;
70592;SDS011;58294;42.988;20.338;2023-06-14T13:11:33;8.88;;;7.75;;
70592;SDS011;58294;42.988;20.338;2023-06-14T13:13:59;8.98;;;8.07;;
70592;SDS011;58294;42.988;20.338;2023-06-14T13:16:24;9.68;;;7.40;;
70592;SDS011;58294;42.988;20.338;2023-06-14T13:18:50;9.32;;;7.18;;
70592;SDS011;58294;42.988;20.338;2023-06-14T13:21:16;8.63;;;7.70;;
70592;SDS011;58294;42.988;20.338;2023-06-14T13:23:42;12.20;;;7.22;;
70592;SDS011;58294;42.988;20.338;2023-06-14T13:26:08;8.00;;;6.53;;
70592;SDS011;58294;42.988;20.338;2023-06-14T13:28:33;9.55;;;7.68;;
70592;SDS011;58294;42.988;20.338;2023-06-14T13:31:00;9.00;;;7.90;;
70592;SDS011;58294;42.988;20.338;2023-06-14T13:33:27;9.60;;;8.70;;
70592;SDS011;58294;42.988;20.338;2023-06-14T13:35:52;9.63;;;8.68;;
70592;SDS011;58294;42.988;20.338;2023-06-14T13:38:18;12.65;;;10.13;;
70592;SDS011;58294;42.988;20.338;2023-06-14T13:40:44;13.82;;;11.75;;
70592;SDS011;58294;42.988;20.338;2023-06-14T13:43:10;9.10;;;7.28;;
70592;SDS011;58294;42.988;20.338;2023-06-14T13:45:36;10.93;;;8.55;;
70592;SDS011;58294;42.988;20.338;2023-06-14T13:48:03;12.07;;;8.32;;
70592;SDS011;58294;42.988;20.338;2023-06-14T13:50:28;9.15;;;7.50;;
70592;SDS011;58294;42.988;20.338;2023-06-14T13:52:54;9.35;;;7.68;;
70592;SDS011;58294;42.988;20.338;2023-06-14T13:55:20;9.40;;;7.43;;
70592;SDS011;58294;42.988;20.338;2023-06-14T13:57:47;7.65;;;6.85;;
70592;SDS011;58294;42.988;20.338;2023-06-14T14:00:13;7.03;;;6.32;;
70592;SDS011;58294;42.988;20.338;2023-06-14T14:02:40;10.13;;;7.80;;
70592;SDS011;58294;42.988;20.338;2023-06-14T14:05:06;7.45;;;6.75;;
70592;SDS011;58294;42.988;20.338;2023-06-14T14:07:32;7.72;;;6.93;;
70592;SDS011;58294;42.988;20.338;2023-06-14T14:09:58;8.10;;;7.25;;
70592;SDS011;58294;42.988;20.338;2023-06-14T14:12:24;6.88;;;5.90;;
70592;SDS011;58294;42.988;20.338;2023-06-14T14:14:50;8.40;;;6.50;;
70592;SDS011;58294;42.988;20.338;2023-06-14T14:17:17;7.22;;;6.50;;
70592;SDS011;58294;42.988;20.338;2023-06-14T14:19:43;7.82;;;6.43;;
70592;SDS011;58294;42.988;20.338;2023-06-14T14:22:09;7.15;;;5.97;;
70592;SDS011;58294;42.988;20.338;2023-06-14T14:24:35;7.28;;;5.68;;
70592;SDS011;58294;42.988;20.338;2023-06-14T14:27:03;6.43;;;5.72;;
70592;SDS011;58294;42.988;20.338;2023-06-14T14:29:29;9.18;;;6.47;;
70592;SDS011;58294;42.988;20.338;2023-06-14T14:31:56;9.23;;;7.53;;
70592;SDS011;58294;42.988;20.338;2023-06-14T14:34:23;7.72;;;6.90;;
70592;SDS011;58294;42.988;20.338;2023-06-14T14:36:49;10.05;;;6.93;;
70592;SDS011;58294;42.988;20.338;2023-06-14T14:39:16;8.13;;;6.68;;
70592;SDS011;58294;42.988;20.338;2023-06-14T14:41:42;6.40;;;5.53;;
70592;SDS011;58294;42.988;20.338;2023-06-14T14:44:08;7.35;;;5.88;;
70592;SDS011;58294;42.988;20.338;2023-06-14T14:46:34;9.27;;;7.18;;